Terminal Aerodrome Forecast
Issued by NWS Greer, SC

Home | Current Version | Previous Version | Text Only | Print | Product List | Glossary On
Versions: 1 2 3 4 5 6 7 8 9 10 11 12 13
000
FTUS42 KGSP 222300
TAFGSP
TAF
KGSP 222336Z 2300/2324 32003KT P6SM SCT070 BKN250
     FM230600 35003KT P6SM SCT100 BKN250
     FM231300 01005KT P6SM SCT100 BKN250
     FM231900 36005KT P6SM SCT060 BKN130 PROB30 2319/2324 4SM TSRA
      BKN040CB=

USA.gov is the U.S. government's official web portal to all federal, state and local government web resources and services.